Longville, MN

1:38 PM CST on November 18, 2017 (GMT -0600)
Longville Municipal

Weather History for KXVG - November, 2012

Change the Weather History Date:

Saturday, November 10, 2012

  Actual Average (KPWC) Record (KPWC)
Temperature  
Mean Temperature 38 °F -  
Max Temperature 46 °F 38 °F 60 °F (2010)
Min Temperature 33 °F 23 °F -5 °F (2017)
Degree Days  
Heating Degree Days 26    
Moisture  
Dew Point 37 °F    
Average Humidity 97    
Maximum Humidity 100    
Minimum Humidity 81    
Precipitation  
Precipitation 0.82 in - - ()
Sea Level Pressure  
Sea Level Pressure 29.67 in    
Wind  
Wind Speed 7 mph (East)    
Max Wind Speed 13 mph    
Max Gust Speed 22 mph    
Visibility 4 miles    
Events Rain , Snow , Thunderstorm    
Averages and records for this station are not official NWS values.
T = Trace of Precipitation, MM = Missing Value Source: NWS Daily Summary

Daily Weather History Graph

Daily Weather History Graph

Search for Another Location

Airport or City:

Trip Planner

Search our weather history database for the weather conditions in past years. The results will help you decide how hot, cold, wet, or windy it might be!

Date:

Astronomy

Nov. 10, 2012 Rise Set
Actual Time 7:13 AM CST 4:47 PM CST
Civil Twilight 6:40 AM CST 5:20 PM CST
Nautical Twilight 6:04 AM CST 5:56 PM CST
Astronomical Twilight 5:28 AM CST 6:32 PM CST
Moon 3:06 AM CST (11/10) 2:45 PM CST (11/10)
Length of Visible Light 10h 39m
Length of Day
9h 33m
Waning Crescent, 14% of the Moon is Illuminated
Nov 10
Waning Crescent
Nov 13
New
Nov 20
First Quarter
Nov 28
Full
Dec 6
Last Quarter

Hourly Weather History & Observations

Time (CST) Temp. Windchill Dew Point Humidity Pressure Visibility Wind Dir Wind Speed Gust Speed Precip Events Conditions
12:16 AM 35.6 °F 29.9 °F 30.2 °F 81% 29.98 in 10.0 mi East 6.9 mph 16.1 mph N/A Rain Light Rain
12:36 AM 33.8 °F 24.8 °F 32.0 °F 93% 29.95 in 10.0 mi East 12.7 mph 20.7 mph N/A   Drizzle
12:56 AM 33.8 °F 25.8 °F 32.0 °F 93% 29.95 in 7.0 mi East 10.4 mph 20.7 mph N/A Rain Light Rain
1:16 AM 33.8 °F 25.8 °F 33.8 °F 100% 29.94 in 10.0 mi East 10.4 mph 17.3 mph N/A   Overcast
1:36 AM 33.8 °F 28.6 °F 33.8 °F 100% 29.94 in 10.0 mi East 5.8 mph - N/A   Overcast
1:56 AM 35.6 °F 29.9 °F 33.8 °F 93% 29.92 in 10.0 mi East 6.9 mph 17.3 mph N/A   Overcast
2:16 AM 35.6 °F 28.6 °F 33.8 °F 93% 29.90 in 10.0 mi East 9.2 mph 17.3 mph N/A   Overcast
2:36 AM 35.6 °F 27.1 °F 33.8 °F 93% 29.90 in 10.0 mi East 12.7 mph 19.6 mph N/A   Overcast
2:56 AM 35.6 °F 28.6 °F 33.8 °F 93% 29.89 in 10.0 mi East 9.2 mph 21.9 mph N/A   Overcast
3:16 AM 35.6 °F 31.7 °F 33.8 °F 93% 29.89 in 10.0 mi East 4.6 mph 17.3 mph N/A   Overcast
3:36 AM 35.6 °F 30.7 °F 33.8 °F 93% 29.88 in 10.0 mi East 5.8 mph - N/A   Overcast
3:56 AM 35.6 °F 32.8 °F 33.8 °F 93% 29.87 in 10.0 mi East 3.5 mph 18.4 mph N/A   Drizzle
4:16 AM 35.6 °F 29.2 °F 33.8 °F 93% 29.87 in 10.0 mi East 8.1 mph - N/A   Overcast
4:36 AM 35.6 °F 29.2 °F 33.8 °F 93% 29.86 in 5.0 mi East 8.1 mph 16.1 mph N/A Rain Light Rain
4:56 AM 35.6 °F 31.7 °F 33.8 °F 93% 29.85 in 5.0 mi East 4.6 mph - N/A   Drizzle
5:16 AM 33.8 °F 26.4 °F 33.8 °F 100% 29.84 in 3.0 mi East 9.2 mph - N/A   Light Drizzle
5:36 AM 33.8 °F 28.6 °F 33.8 °F 100% 29.83 in 5.0 mi East 5.8 mph - N/A   Light Drizzle
6:16 AM 33.8 °F 27.7 °F 33.8 °F 100% 29.80 in 4.0 mi East 6.9 mph 17.3 mph N/A   Overcast
6:36 AM 33.8 °F 26.4 °F 33.8 °F 100% 29.79 in 5.0 mi East 9.2 mph 20.7 mph N/A Thunderstorm Overcast
6:56 AM 33.8 °F 27.7 °F 33.8 °F 100% 29.78 in 4.0 mi East 6.9 mph 16.1 mph N/A Thunderstorm Overcast
7:16 AM 33.8 °F 29.6 °F 33.8 °F 100% 29.81 in 5.0 mi ENE 4.6 mph 17.3 mph 0.03 in Rain Light Rain
7:36 AM 33.8 °F 27.0 °F 33.8 °F 100% 29.78 in 5.0 mi East 8.1 mph - 0.04 in Rain Light Rain
7:56 AM 35.6 °F 30.7 °F 33.8 °F 93% 29.78 in 7.0 mi East 5.8 mph - N/A   Overcast
8:16 AM 35.6 °F 29.9 °F 33.8 °F 93% 29.77 in 4.0 mi East 6.9 mph - N/A   Light Drizzle
8:36 AM 35.6 °F 30.7 °F 33.8 °F 93% 29.78 in 3.0 mi East 5.8 mph - N/A Rain , Thunderstorm Rain
8:56 AM 35.6 °F 29.2 °F 33.8 °F 93% 29.75 in 1.0 mi East 8.1 mph - 0.02 in Snow , Thunderstorm Light Thunderstorms and Snow
9:36 AM 35.6 °F 30.7 °F 33.8 °F 93% 29.73 in 2.5 mi East 5.8 mph - 0.38 in Rain , Thunderstorm Thunderstorms and Rain
9:56 AM 35.6 °F 30.7 °F 33.8 °F 93% 29.72 in 1.0 mi East 5.8 mph - 0.01 in Snow , Thunderstorm Light Thunderstorms and Snow
10:16 AM 35.6 °F 31.7 °F 33.8 °F 93% 29.70 in 5.0 mi East 4.6 mph - 0.04 in Rain Light Rain
10:36 AM 35.6 °F 31.7 °F 35.6 °F 100% 29.70 in 2.5 mi East 4.6 mph - 0.04 in Rain Light Rain
10:56 AM 35.6 °F 31.7 °F 35.6 °F 100% 29.69 in 2.5 mi East 4.6 mph - N/A Thunderstorm Overcast
11:16 AM 35.6 °F 30.7 °F 35.6 °F 100% 29.68 in 1.8 mi East 5.8 mph - N/A   Light Drizzle
11:36 AM 35.6 °F 29.9 °F 35.6 °F 100% 29.67 in 1.5 mi East 6.9 mph - N/A   Light Drizzle
11:56 AM 37.4 °F 33.8 °F 35.6 °F 93% 29.66 in 1.5 mi ENE 4.6 mph - N/A   Drizzle
12:16 PM 37.4 °F 33.8 °F 35.6 °F 93% 29.65 in 1.5 mi East 4.6 mph - 0.01 in   Drizzle
12:36 PM 37.4 °F 32.1 °F 37.4 °F 100% 29.64 in 1.5 mi East 6.9 mph - 0.01 in   Drizzle
12:56 PM 37.4 °F - 37.4 °F 100% 29.63 in 1.5 mi Calm Calm - N/A   Drizzle
1:16 PM 37.4 °F 33.8 °F 37.4 °F 100% 29.62 in 1.5 mi East 4.6 mph - N/A   Light Drizzle
1:36 PM 37.4 °F 31.4 °F 37.4 °F 100% 29.62 in 1.8 mi East 8.1 mph - N/A   Drizzle
1:56 PM 39.2 °F 35.9 °F 37.4 °F 93% 29.59 in 2.0 mi East 4.6 mph - N/A   Light Drizzle
2:16 PM 39.2 °F 35.0 °F 37.4 °F 93% 29.58 in 2.0 mi East 5.8 mph - N/A   Light Drizzle
2:36 PM 39.2 °F 32.5 °F 37.4 °F 93% 29.57 in 2.5 mi ESE 10.4 mph - N/A   Overcast
2:56 PM 39.2 °F 34.2 °F 37.4 °F 93% 29.56 in 4.0 mi East 6.9 mph - N/A   Overcast
3:16 PM 39.2 °F 33.0 °F 39.2 °F 100% 29.56 in 2.5 mi East 9.2 mph - N/A   Overcast
3:36 PM 39.2 °F 33.0 °F 39.2 °F 100% 29.55 in 1.8 mi East 9.2 mph - N/A   Overcast
3:56 PM 39.2 °F 34.2 °F 39.2 °F 100% 29.55 in 1.8 mi East 6.9 mph - N/A   Overcast
4:16 PM 39.2 °F 34.2 °F 39.2 °F 100% 29.55 in 2.5 mi East 6.9 mph - N/A   Overcast
4:36 PM 39.2 °F 35.9 °F 39.2 °F 100% 29.54 in 3.0 mi East 4.6 mph - N/A   Drizzle
4:56 PM 39.2 °F 32.5 °F 39.2 °F 100% 29.53 in 10.0 mi East 10.4 mph 17.3 mph N/A   Overcast
5:16 PM 39.2 °F 34.2 °F 39.2 °F 100% 29.54 in 10.0 mi East 6.9 mph - N/A   Overcast
5:36 PM 41.0 °F 38.0 °F 39.2 °F 93% 29.54 in 7.0 mi East 4.6 mph - N/A   Overcast
5:56 PM 41.0 °F 37.1 °F 41.0 °F 100% 29.53 in 3.0 mi East 5.8 mph - N/A   Overcast
6:16 PM 41.0 °F 38.0 °F 41.0 °F 100% 29.53 in 1.8 mi ESE 4.6 mph - N/A   Overcast
6:36 PM 41.0 °F 37.1 °F 41.0 °F 100% 29.53 in 1.5 mi ESE 5.8 mph - N/A   Overcast
6:56 PM 42.8 °F 38.6 °F 41.0 °F 93% 29.53 in 1.5 mi SE 6.9 mph - N/A   Overcast
7:16 PM 42.8 °F 40.1 °F 42.8 °F 100% 29.51 in 1.5 mi ESE 4.6 mph - N/A   Overcast
7:36 PM 42.8 °F 41.1 °F 42.8 °F 100% 29.50 in 1.2 mi ESE 3.5 mph - N/A   Overcast
7:56 PM 42.8 °F 39.3 °F 42.8 °F 100% 29.49 in 1.0 mi ESE 5.8 mph - N/A   Overcast
8:16 PM 42.8 °F 40.1 °F 42.8 °F 100% 29.47 in 0.8 mi East 4.6 mph - N/A   Overcast
8:36 PM 42.8 °F 39.3 °F 42.8 °F 100% 29.46 in 0.8 mi East 5.8 mph - N/A   Overcast
9:16 PM 42.8 °F 40.1 °F 42.8 °F 100% 29.44 in 1.0 mi ESE 4.6 mph - 0.05 in Rain , Thunderstorm Heavy Thunderstorms and Rain
9:36 PM 44.6 °F 42.2 °F 42.8 °F 93% 29.48 in 1.2 mi SSE 4.6 mph - 0.10 in Rain , Thunderstorm Rain
10:16 PM 44.6 °F 42.2 °F 42.8 °F 93% 29.45 in 1.8 mi ESE 4.6 mph - 0.15 in   Overcast
10:36 PM 44.6 °F 40.7 °F 44.6 °F 100% 29.41 in 3.0 mi East 6.9 mph - 0.23 in Rain Rain
10:56 PM 44.6 °F 40.7 °F 44.6 °F 100% 29.41 in 7.0 mi SE 6.9 mph - N/A Rain Light Rain
11:16 PM 44.6 °F 40.7 °F 44.6 °F 100% 29.40 in 5.0 mi SE 6.9 mph - N/A   Scattered Clouds
11:36 PM 44.6 °F 40.7 °F 44.6 °F 100% 29.41 in 5.0 mi SE 6.9 mph - N/A   Clear
11:56 PM 46.4 °F 42.4 °F 44.6 °F 93% 29.41 in 5.0 mi SE 8.1 mph - N/A Rain Rain